createdAt,value
2023-04-19T00:00:00.000Z,85.17
2023-04-19T00:15:00.000Z,85.41
2023-04-19T00:30:00.000Z,85.38
2023-04-19T00:45:00.000Z,85.34
2023-04-19T01:00:00.000Z,85.15
2023-04-19T01:15:00.000Z,85.43
2023-04-19T01:30:00.000Z,85.52
2023-04-19T01:45:00.000Z,85.59
2023-04-19T02:00:00.000Z,85.42
2023-04-19T02:15:00.000Z,85.48
2023-04-19T02:30:00.000Z,85.35
2023-04-19T02:45:00.000Z,85.37
2023-04-19T03:00:00.000Z,85.08
2023-04-19T03:15:00.000Z,85.42
2023-04-19T03:30:00.000Z,85.57
2023-04-19T03:45:00.000Z,85.41
2023-04-19T04:00:00.000Z,85.22
2023-04-19T04:15:00.000Z,85.38
2023-04-19T04:30:00.000Z,85.8
2023-04-19T04:45:00.000Z,86.09
2023-04-19T05:00:00.000Z,86.1
2023-04-19T05:15:00.000Z,84.89
2023-04-19T05:30:00.000Z,84.43
2023-04-19T05:45:00.000Z,84.16
2023-04-19T06:00:00.000Z,83.49
2023-04-19T06:15:00.000Z,82.93
2023-04-19T06:30:00.000Z,83.11
2023-04-19T06:45:00.000Z,83.07
2023-04-19T07:00:00.000Z,82.19
2023-04-19T07:15:00.000Z,80.79
2023-04-19T07:30:00.000Z,80.24
2023-04-19T07:45:00.000Z,79.2
2023-04-19T08:00:00.000Z,76.61
2023-04-19T08:15:00.000Z,73.69
2023-04-19T08:30:00.000Z,73.92
2023-04-19T08:45:00.000Z,73.06
2023-04-19T09:00:00.000Z,73.59
2023-04-19T09:15:00.000Z,69.07
2023-04-19T09:30:00.000Z,67.37
2023-04-19T09:45:00.000Z,66.53
2023-04-19T10:00:00.000Z,64.58
2023-04-19T10:15:00.000Z,67.82
2023-04-19T10:30:00.000Z,73.69
2023-04-19T10:45:00.000Z,76.71
2023-04-19T11:00:00.000Z,77.02
2023-04-19T11:15:00.000Z,78.76
2023-04-19T11:30:00.000Z,78.36
2023-04-19T11:45:00.000Z,80.72
2023-04-19T12:00:00.000Z,80.04
2023-04-19T12:15:00.000Z,76.89
2023-04-19T12:30:00.000Z,77.51
2023-04-19T12:45:00.000Z,80.38
2023-04-19T13:00:00.000Z,80.97
2023-04-19T13:15:00.000Z,82.46
2023-04-19T13:30:00.000Z,82.98
2023-04-19T13:45:00.000Z,82.28
2023-04-19T14:00:00.000Z,81.48
2023-04-19T14:15:00.000Z,82.41
2023-04-19T14:30:00.000Z,83.17
2023-04-19T14:45:00.000Z,83.8
2023-04-19T15:00:00.000Z,83.39
2023-04-19T15:15:00.000Z,84.03
2023-04-19T15:30:00.000Z,83.56
2023-04-19T15:45:00.000Z,83.32
2023-04-19T16:00:00.000Z,83.23
2023-04-19T16:15:00.000Z,82.89
2023-04-19T16:30:00.000Z,83.23
2023-04-19T16:45:00.000Z,83.21
2023-04-19T17:00:00.000Z,82.98
2023-04-19T17:15:00.000Z,82.96
2023-04-19T17:30:00.000Z,82.85
2023-04-19T17:45:00.000Z,83.09
2023-04-19T18:00:00.000Z,83.06
2023-04-19T18:15:00.000Z,83.18
2023-04-19T18:30:00.000Z,84.13
2023-04-19T18:45:00.000Z,84.12
2023-04-19T19:00:00.000Z,84.1
2023-04-19T19:15:00.000Z,84.05
2023-04-19T19:30:00.000Z,83.94
2023-04-19T19:45:00.000Z,84.24
2023-04-19T20:00:00.000Z,84.36
2023-04-19T20:15:00.000Z,84.42
2023-04-19T20:30:00.000Z,84.57
2023-04-19T20:45:00.000Z,84.79
2023-04-19T21:00:00.000Z,84.68
2023-04-19T21:15:00.000Z,84.64
2023-04-19T21:30:00.000Z,84.73
2023-04-19T21:45:00.000Z,84.6
2023-04-19T22:00:00.000Z,84.92
2023-04-19T22:15:00.000Z,84.96
2023-04-19T22:30:00.000Z,84.74
2023-04-19T22:45:00.000Z,84.61
2023-04-19T23:00:00.000Z,84.72
2023-04-19T23:15:00.000Z,84.76
2023-04-19T23:30:00.000Z,84.61
2023-04-19T23:45:00.000Z,84.54
